KSBP/SBP METAR and TAF weather

Enter ICAO airport designator
Station Type Date Time Source
KSBP METAR 2020/09/22 18:56 UTC NOAA

KSBP 221856Z 31011KT 10SM SKC 22/13 A3003


Station Type Date Time Source
KSBP Decoded METAR 2020/09/22 18:56 UTC NOAA

SAN LUIS OBISPO MC CHESNEY, CA, United States (KSBP) 35-14N 120-38W 59M
Sep 22, 2020 - 02:56 PM EDT / 2020.09.22 1856 UTC
Wind: from the NW (310 degrees) at 13 MPH (11 KT):0
Visibility: 10 mile(s):0
Sky conditions: clear
Temperature: 71 F (22 C)
Dew Point: 55 F (13 C)
Relative Humidity: 56%
Pressure (altimeter): 30.03 in. Hg (1016 hPa)
ob: KSBP 221856Z 31011KT 10SM SKC 22/13 A3003
cycle: 19

Station Type Date Time Source
KSBP TAF 2020/09/22 18:30 UTC NOAA

TAF KSBP 221728Z 2218/2318 VRB03KT P6SM SCT006
FM222100 30010KT P6SM SKC
FM230400 VRB03KT P6SM SKC
FM231100 00000KT 5SM HZ SKC

Example: see airport list